Artesian, SD

8:05 AM CDT on November 01, 2014 (GMT -0500)
Mitchell Municipal | Change Station
CLOSE
Current Station
Airport
Location: Mitchell,
Elevation: 1302 ft
Nearby Weather Stations
Active Advisory: Special Statement Active Notice: Record Report

Elev 1302 ft 43.77 °N, 98.04 °W | Updated 12 minutes ago

Clear
Clear
30 °F
Feels Like 17 °F
N
21
Wind Variable Wind from SSE
Gusts 28 mph

Today
High -- | Low -- °F
--% Chance of Precip.
Yesterday
High -- | Low -- °F
Precip. -- in
8:08 AM 6:21 PM
Waxing Gibbous, 66% visible
Pressure 30.26 in
Visibility 10.0 miles
Clouds Clear
Windchill 17 °F
Dew Point 19 °F
Humidity 64%
Rainfall 0.00 in
Snow Depth Not available.
UV 0 out of 12
Pollen .10 out of 12
Air Quality Not available.
Flu Activity Not available.
METAR KMHE 011253Z AUTO 16018G24KT 10SM CLR M01/M07 A3022 RMK AO2 SLP247 T10111072

More Conditions Fewer Conditions

Pressure 30.26 in
Visibility 10.0 miles
Clouds Clear
Windchill 17 °F
Dew Point 19 °F
Humidity 64%
Rainfall 0.00 in
Snow Depth Not available.
UV 0 out of 12
Pollen .10 out of 12
Air Quality Not available.
Flu Activity Not available.
METAR KMHE 011253Z AUTO 16018G24KT 10SM CLR M01/M07 A3022 RMK AO2 SLP247 T10111072

More Conditions Fewer Conditions

10-Day Weather Forecast

Almanac

Astronomy

Nov. 01, 2014 Rise Set
Actual Time
Civil Twilight
Nautical Twilight
Astronomical Twilight
Moon
Length of Visible Light
Length of Day
Tomorrow will be .
, % of the Moon is Illuminated

Today's Extremes

State Highs State Lows

Community

WunderPhotos

Upload Photos

1,766,918 photos uploaded!

WunderBlogs® & News

Nearby

Air Quality

  Air Quality AQ Index Pollutant
Not available.

Snow Depth

Station Depth Elevation

Earthquake Activity

City Distance Mag. Time & Date
Minimum magnitude displayed is 2.5.

Coastal Water Temperatures

Place Temperature

Nearby Weather Stations